KRDM/RDM METAR and TAF weather

Enter ICAO airport designator
Station Type Date Time Source
KRDM METAR 2020/09/26 23:56 UTC NOAA

KRDM 262356Z 30018G25KT 10SM BKN060 18/05 A3021 RMK AO2 SLP216 T01780050 10189 20150 53005


Station Type Date Time Source
KRDM Decoded METAR 2020/09/26 23:56 UTC NOAA

REDMOND ROBERTS FIELD, OR, United States (KRDM) 44-15N 121-08W
Sep 26, 2020 - 07:56 PM EDT / 2020.09.26 2356 UTC
Wind: from the WNW (300 degrees) at 21 MPH (18 KT) gusting to 29 MPH (25 KT):0
Visibility: 10 mile(s):0
Sky conditions: mostly cloudy
Temperature: 64.0 F (17.8 C)
Dew Point: 41.0 F (5.0 C)
Relative Humidity: 42%
Pressure (altimeter): 30.21 in. Hg (1023 hPa)
Pressure tendency: 0.01 inches (0.5 hPa) higher than three hours ago
ob: KRDM 262356Z 30018G25KT 10SM BKN060 18/05 A3021 RMK AO2 SLP216 T01780050 10189 20150 53005
cycle: 0

Station Type Date Time Source
KRDM TAF 2020/09/26 18:30 UTC NOAA

TAF KRDM 261725Z 2618/2718 30013G18KT P6SM BKN050
FM270300 33007KT P6SM SCT070
FM270700 15004KT P6SM SKC

Example: see airport list